Weather


ICAO METAR
KAPA KAPA 050653Z 12006KT 10SM SCT140 BKN220 04/M10 A2991 RMK AO2 SLP099 T00441100 401941006
KASE KASE 050653Z AUTO 20006KT 10SM CLR M03/M07 A3017 RMK AO2 SLP173 T10281067 401221044 TSNO $
KBJC KBJC 050655Z AUTO 27015G20KT 10SM CLR 15/M12 A2992 RMK AO2
KBKF KBKF 050658Z 20007KT 10SM SCT140 BKN220 07/M10 A2989 RMK AO2A SLP077 T00741099 401980012
KCFO KCFO 050655Z AUTO 28011KT 10SM CLR 13/M11 A2989 RMK AO2 T01271110 401931014
KCOS KCOS 050654Z 34003KT 10SM BKN250 08/M06 A2993 RMK AO2 SLP110 T00831056 401221039
KCPR KCPR 050653Z AUTO 22018G27KT 10SM CLR 08/M09 A2980 RMK AO2 PK WND 23027/0650 SLP060 T00781094 401441039
KCYS KCYS 050653Z AUTO 17010KT 10SM CLR 10/M12 A2988 RMK AO2 PK WND 25026/0556 SLP054 T01001122 401831028
KDEN KDEN 050653Z 28014KT 10SM BKN250 14/M12 A2987 RMK AO2 SLP062 T01391122 402001011
KEGE KEGE 050656Z AUTO 08004KT 10SM CLR M03/M07 A3019 RMK AO2 SLP248 T10281067 FZRANO
KFCS KFCS 050658Z AUTO 31004KT 10SM CLR 06/M04 A2990 RMK AO2 SLP130 T00601042 401221038 $
KFMN KFMN 050653Z AUTO 05003KT 10SM CLR M02/M08 A3017 RMK AO2 SLP219 T10171083 401441044
KFNL KFNL 050656Z 15008KT 10SM CLR 09/M08 A2984 RMK AO2 SLP079 T00941083 401671044
KGJT KGJT 050653Z AUTO 09005KT 10SM CLR 03/M04 A3016 RMK AO2 SLP202 T00281044 401281039
KGUR KGUR 050658Z AUTO 25028G35KT 9SM CLR 14/M10 A2970 RMK AO2 PK WND 26046/32 SLP044 T01391101 401731066
KPUB KPUB 050653Z AUTO 00000KT 10SM CLR M02/M08 A2991 RMK AO2 SLP128 T10221083 401441056
KRAP KRAP 050701Z AUTO 32009KT 1 3/4SM BR OVC002 M02/M02 A2964 RMK AO2 T10171017
KRCA KRCA 050711Z AUTO 30006KT 1SM R31/4000VP6000FT BR OVC001 M02/M03 A2962 RMK AO2 VIS 1V1 5/8 VIS 1/2 RWY13 CIG 000 RWY13 SLP066 $

Surface Data
Click here.

This is a composite map contain the following analyses: radar summary (color filled areas), surface data plot (composite station model), frontal locations (in various bold lines) and pressure contours (in thin blue lines).